Time;durP1;ratioP1;P1;durP2;ratioP2;P2;SDS_P1;SDS_P2;PMS_P1;PMS_P2;Temp;Humidity;BMP_temperature;BMP_pressure;BME280_temperature;BME280_humidity;BME280_pressure;Samples;Min_cycle;Max_cycle;Signal;HPM_P1;HPM_P2
2021/05/12 00:00:39;;;;;;;1.30;1.10;;;;;;;22.39;33.25;99682.98;1764727;80;21160;-43
2021/05/12 00:03:06;;;;;;;1.50;1.07;;;;;;;22.35;33.49;99689.59;1759484;80;21085;-43
2021/05/12 00:05:32;;;;;;;1.67;1.15;;;;;;;22.35;33.33;99686.91;1767868;80;22198;-44
2021/05/12 00:07:58;;;;;;;4.08;0.90;;;;;;;22.33;32.94;99692.39;1757016;80;21028;-45
2021/05/12 00:10:24;;;;;;;1.20;1.10;;;;;;;22.34;32.95;99698.59;1751208;80;21101;-43
2021/05/12 00:12:51;;;;;;;5.55;0.80;;;;;;;22.31;33.31;99702.86;1766812;80;21118;-45
2021/05/12 00:15:21;;;;;;;3.90;1.27;;;;;;;22.30;31.90;99710.05;1753663;80;21043;-43
2021/05/12 00:17:50;;;;;;;1.20;0.85;;;;;;;22.10;32.32;99710.28;1743990;80;21608;-44
2021/05/12 00:20:22;;;;;;;4.08;0.75;;;;;;;22.00;32.76;99717.34;1752072;80;21077;-44
2021/05/12 00:22:53;;;;;;;0.80;0.70;;;;;;;21.84;32.04;99705.16;1763290;80;21073;-45
2021/05/12 00:25:16;;;;;;;4.95;0.78;;;;;;;21.69;32.55;99703.70;1762669;80;21026;-44
2021/05/12 00:27:42;;;;;;;2.45;0.88;;;;;;;21.60;32.53;99708.41;1769084;80;21048;-43
2021/05/12 00:30:12;;;;;;;1.98;0.80;;;;;;;21.49;32.48;99703.41;1753321;80;21537;-43
2021/05/12 00:32:41;;;;;;;4.45;0.80;;;;;;;21.40;31.81;99704.56;1762378;80;21569;-47
2021/05/12 00:35:09;;;;;;;1.15;0.80;;;;;;;21.22;31.78;99702.33;1762550;80;20927;-43
2021/05/12 00:37:36;;;;;;;1.60;0.70;;;;;;;21.07;32.18;99697.66;1718581;81;21109;-44
2021/05/12 00:40:04;;;;;;;2.00;0.62;;;;;;;21.06;32.14;99697.27;1757439;80;21089;-44
2021/05/12 00:42:31;;;;;;;1.35;0.60;;;;;;;21.12;31.68;99698.66;1763658;80;21310;-44
2021/05/12 00:44:58;;;;;;;2.50;0.60;;;;;;;21.07;31.84;99692.80;1772084;80;21651;-44
2021/05/12 00:47:29;;;;;;;3.62;0.62;;;;;;;21.10;31.89;99701.44;1750848;80;21046;-45
2021/05/12 00:49:56;;;;;;;0.95;0.70;;;;;;;21.11;31.52;99692.42;1752452;80;22483;-43
2021/05/12 00:52:23;;;;;;;0.90;0.62;;;;;;;21.10;31.71;99694.75;1743769;80;21085;-47
2021/05/12 00:54:50;;;;;;;2.08;0.68;;;;;;;21.11;31.49;99696.44;1745455;80;21551;-45
2021/05/12 00:57:17;;;;;;;3.92;0.60;;;;;;;21.08;31.05;99681.98;1709273;81;21414;-44
2021/05/12 00:59:45;;;;;;;1.15;0.50;;;;;;;21.04;31.14;99687.18;1742903;80;21030;-46
2021/05/12 01:02:11;;;;;;;1.30;0.62;;;;;;;21.04;31.11;99689.01;1749515;80;21096;-45
2021/05/12 01:04:38;;;;;;;3.52;0.65;;;;;;;21.00;30.65;99687.05;1755469;80;21742;-43
2021/05/12 01:07:05;;;;;;;1.55;0.70;;;;;;;20.93;30.76;99682.66;1754673;80;21535;-45
2021/05/12 01:09:32;;;;;;;0.60;0.60;;;;;;;20.92;30.74;99684.10;1749565;80;21054;-43
2021/05/12 01:11:59;;;;;;;1.47;0.53;;;;;;;20.91;30.64;99691.74;1742488;80;21862;-45
2021/05/12 01:14:25;;;;;;;1.60;0.80;;;;;;;20.91;30.67;99694.42;1746238;80;21698;-45
2021/05/12 01:16:52;;;;;;;2.08;0.70;;;;;;;20.82;30.45;99691.95;1739856;80;21061;-44
2021/05/12 01:19:18;;;;;;;0.40;0.40;;;;;;;20.68;30.55;99691.65;1723701;81;21085;-44
2021/05/12 01:21:45;;;;;;;1.70;0.75;;;;;;;20.58;30.71;99671.88;1757248;80;21647;-46
2021/05/12 01:24:11;;;;;;;0.53;0.53;;;;;;;20.55;30.65;99666.75;1743243;80;21056;-44
2021/05/12 01:26:38;;;;;;;1.10;0.70;;;;;;;20.52;30.86;99666.97;1742957;80;21112;-43
2021/05/12 01:29:04;;;;;;;2.20;0.68;;;;;;;20.53;30.72;99683.39;1747778;80;21129;-46
2021/05/12 01:31:42;;;;;;;0.95;0.80;;;;;;;20.49;30.68;99681.41;1753445;80;21963;-46
2021/05/12 01:34:14;;;;;;;1.70;0.80;;;;;;;20.38;30.51;99682.20;1762120;80;22127;-46
2021/05/12 01:36:41;;;;;;;1.45;0.75;;;;;;;20.18;30.81;99684.12;1732824;80;21602;-43
2021/05/12 01:39:08;;;;;;;1.85;1.02;;;;;;;20.01;31.07;99683.52;1757621;80;21132;-43
2021/05/12 01:41:35;;;;;;;3.60;0.95;;;;;;;19.82;31.20;99672.42;1744157;80;21095;-44
2021/05/12 01:44:09;;;;;;;1.20;0.95;;;;;;;19.68;31.42;99684.05;1761660;80;21471;-45
2021/05/12 01:46:35;;;;;;;3.22;1.20;;;;;;;19.59;31.50;99684.20;1748525;80;21139;-45
2021/05/12 01:49:02;;;;;;;1.90;0.70;;;;;;;19.55;31.59;99676.52;1772364;80;21112;-44
2021/05/12 01:51:28;;;;;;;2.45;0.93;;;;;;;19.54;31.66;99681.01;1764491;80;21104;-44
2021/05/12 01:53:55;;;;;;;1.30;1.15;;;;;;;19.49;31.62;99683.14;1765216;80;21050;-44
2021/05/12 01:56:22;;;;;;;1.70;1.22;;;;;;;19.45;31.69;99674.95;1755912;80;21102;-46
2021/05/12 01:58:49;;;;;;;3.80;1.25;;;;;;;19.42;31.72;99683.20;1773126;80;21144;-46
2021/05/12 02:01:16;;;;;;;1.62;0.82;;;;;;;19.40;31.80;99692.64;1730253;82;21117;-44
2021/05/12 02:03:42;;;;;;;1.85;1.02;;;;;;;19.34;31.77;99696.20;1732095;82;21621;-43
2021/05/12 02:06:09;;;;;;;1.57;0.75;;;;;;;19.14;31.96;99705.06;1741264;82;21082;-43
2021/05/12 02:08:35;;;;;;;1.22;1.10;;;;;;;18.90;32.33;99713.75;1713474;83;21410;-44
2021/05/12 02:11:04;;;;;;;1.80;1.22;;;;;;;18.75;32.58;99717.39;1722225;83;21120;-44
2021/05/12 02:13:31;;;;;;;2.05;1.45;;;;;;;18.65;32.77;99709.63;1702162;83;22354;-43
2021/05/12 02:16:01;;;;;;;4.92;1.40;;;;;;;18.58;32.94;99717.16;1704658;83;21849;-43
2021/05/12 02:18:28;;;;;;;4.12;1.30;;;;;;;18.48;32.94;99717.38;1709602;83;21123;-44
2021/05/12 02:20:55;;;;;;;2.75;1.20;;;;;;;18.27;33.31;99716.92;1700968;83;21105;-45
2021/05/12 02:23:23;;;;;;;1.15;1.00;;;;;;;18.19;33.54;99714.28;1719499;83;20982;-46
2021/05/12 02:25:49;;;;;;;3.12;0.80;;;;;;;18.17;33.57;99719.30;1714286;83;21163;-44
2021/05/12 02:28:16;;;;;;;4.33;0.80;;;;;;;18.18;33.64;99725.88;1714052;83;21674;-45
2021/05/12 02:30:43;;;;;;;1.10;0.70;;;;;;;18.29;33.56;99725.21;1711655;83;21033;-43
2021/05/12 02:33:09;;;;;;;1.57;0.80;;;;;;;18.47;33.36;99735.15;1710016;83;21112;-45
2021/05/12 02:35:36;;;;;;;0.72;0.72;;;;;;;18.67;33.11;99725.03;1680340;83;21500;-45
2021/05/12 02:38:02;;;;;;;3.62;1.07;;;;;;;18.87;32.81;99730.42;1708976;83;21105;-47
2021/05/12 02:40:29;;;;;;;4.47;0.90;;;;;;;19.04;32.50;99735.48;1712983;83;21160;-43
2021/05/12 02:42:57;;;;;;;1.15;1.02;;;;;;;19.13;32.34;99726.02;1707731;83;21108;-43
2021/05/12 02:45:25;;;;;;;1.50;1.10;;;;;;;19.20;32.24;99724.67;1703864;83;21558;-43
2021/05/12 02:47:58;;;;;;;4.28;1.27;;;;;;;19.33;32.06;99727.34;1701049;83;21141;-45
2021/05/12 02:50:34;;;;;;;1.42;1.32;;;;;;;19.50;31.75;99730.20;1708489;83;21515;-44
2021/05/12 02:53:01;;;;;;;1.72;1.35;;;;;;;19.60;31.59;99718.41;1696214;83;21169;-44
2021/05/12 02:55:28;;;;;;;1.87;1.27;;;;;;;19.74;31.46;99720.16;1683794;83;21035;-43
2021/05/12 02:57:55;;;;;;;1.60;1.15;;;;;;;19.97;31.22;99728.78;1690754;83;21207;-44
2021/05/12 03:00:23;;;;;;;0.90;0.90;;;;;;;20.23;30.82;99726.06;1694568;83;21094;-43
2021/05/12 03:02:49;;;;;;;2.80;1.00;;;;;;;20.47;30.48;99722.59;1736727;80;21114;-45
2021/05/12 03:05:16;;;;;;;1.27;1.17;;;;;;;20.71;29.96;99720.84;1742448;80;21128;-44
2021/05/12 03:07:44;;;;;;;3.67;0.95;;;;;;;20.76;29.86;99714.66;1746623;80;21080;-46
2021/05/12 03:10:14;;;;;;;0.90;0.90;;;;;;;20.83;29.71;99721.75;1758865;80;21192;-44
2021/05/12 03:12:41;;;;;;;1.30;1.00;;;;;;;20.80;29.60;99714.45;1751891;80;21105;-45
2021/05/12 03:15:11;;;;;;;3.20;0.72;;;;;;;20.85;29.63;99713.62;1758905;80;21113;-43
2021/05/12 03:17:37;;;;;;;0.80;0.80;;;;;;;21.02;29.47;99717.70;1718116;81;21129;-43
2021/05/12 03:20:06;;;;;;;0.88;0.80;;;;;;;21.16;29.07;99714.83;1761611;80;21145;-44
2021/05/12 03:22:32;;;;;;;3.60;0.65;;;;;;;21.11;29.13;99727.20;1739514;80;21148;-45
2021/05/12 03:24:59;;;;;;;2.47;0.70;;;;;;;21.12;29.18;99717.38;1765954;80;21617;-46
2021/05/12 03:27:25;;;;;;;1.60;0.60;;;;;;;21.28;29.00;99710.36;1760243;80;21620;-45
2021/05/12 03:29:52;;;;;;;0.57;0.50;;;;;;;21.44;28.75;99712.24;1759844;80;21100;-43
2021/05/12 03:32:18;;;;;;;0.80;0.42;;;;;;;21.49;28.58;99711.44;1742674;80;21061;-43
2021/05/12 03:34:44;;;;;;;1.67;0.50;;;;;;;21.51;28.51;99710.83;1746852;80;21431;-44
2021/05/12 03:37:11;;;;;;;0.70;0.62;;;;;;;21.43;28.61;99707.84;1759066;80;21089;-45
2021/05/12 03:39:38;;;;;;;1.00;0.40;;;;;;;21.37;28.52;99709.68;1762610;80;21050;-44
2021/05/12 03:42:05;;;;;;;0.90;0.50;;;;;;;21.20;28.83;99710.09;1755802;80;21014;-46
2021/05/12 03:44:31;;;;;;;0.55;0.47;;;;;;;21.15;28.91;99705.11;1746863;80;21119;-47
2021/05/12 03:46:58;;;;;;;4.15;0.68;;;;;;;21.28;28.86;99702.34;1756020;80;22408;-44
2021/05/12 03:49:25;;;;;;;0.70;0.40;;;;;;;21.27;28.76;99703.33;1765577;80;21136;-46
2021/05/12 03:51:52;;;;;;;0.70;0.40;;;;;;;21.27;28.72;99705.51;1740505;80;22401;-44
2021/05/12 03:54:21;;;;;;;1.22;0.60;;;;;;;21.28;28.75;99701.00;1747142;80;22290;-44
2021/05/12 03:56:47;;;;;;;1.50;0.40;;;;;;;21.24;28.77;99702.22;1742232;80;21116;-43
2021/05/12 03:59:14;;;;;;;2.62;0.60;;;;;;;21.20;28.86;99694.03;1759013;80;21985;-45
2021/05/12 04:01:41;;;;;;;4.37;0.60;;;;;;;21.26;28.69;99694.42;1743577;80;21123;-45
2021/05/12 04:04:10;;;;;;;2.17;0.50;;;;;;;21.09;28.96;99694.86;1765277;80;21105;-44
2021/05/12 04:06:38;;;;;;;2.45;0.50;;;;;;;21.13;28.98;99697.20;1748836;80;21151;-44
2021/05/12 04:09:05;;;;;;;0.60;0.60;;;;;;;21.17;29.01;99691.13;1742523;80;21108;-43
2021/05/12 04:11:31;;;;;;;1.37;0.57;;;;;;;21.18;28.97;99698.16;1702507;83;21149;-45
2021/05/12 04:13:58;;;;;;;1.02;0.50;;;;;;;21.26;29.01;99701.61;1747925;80;22007;-43
2021/05/12 04:16:24;;;;;;;1.70;0.55;;;;;;;21.39;28.89;99702.38;1747272;80;21183;-45
2021/05/12 04:18:51;;;;;;;5.58;0.90;;;;;;;21.52;28.69;99709.02;1745812;80;21648;-44
2021/05/12 04:21:17;;;;;;;2.30;0.70;;;;;;;21.61;28.66;99707.45;1751314;80;21614;-45
2021/05/12 04:23:44;;;;;;;2.37;0.80;;;;;;;21.70;28.44;99706.25;1743196;80;21188;-44
2021/05/12 04:26:11;;;;;;;1.98;0.70;;;;;;;21.64;28.57;99711.23;1750285;80;22292;-45
2021/05/12 04:28:37;;;;;;;2.80;0.68;;;;;;;21.60;28.65;99712.42;1738486;80;21113;-44
2021/05/12 04:31:04;;;;;;;2.22;0.68;;;;;;;21.46;28.71;99714.31;1748902;80;21847;-43
2021/05/12 04:33:31;;;;;;;2.50;0.60;;;;;;;21.03;29.21;99702.88;1752958;80;21125;-44
2021/05/12 04:35:58;;;;;;;2.47;0.78;;;;;;;20.82;30.13;99700.47;1696118;83;22211;-46
2021/05/12 04:38:24;;;;;;;2.90;0.55;;;;;;;20.95;30.38;99706.61;1764235;80;21113;-42
2021/05/12 04:40:51;;;;;;;2.00;0.50;;;;;;;21.14;30.31;99708.25;1763514;79;21160;-43
2021/05/12 04:43:17;;;;;;;0.60;0.60;;;;;;;21.36;30.02;99705.78;1763255;80;21132;-43
2021/05/12 04:45:44;;;;;;;4.05;0.60;;;;;;;21.54;29.74;99707.08;1762113;80;21093;-42
2021/05/12 04:48:11;;;;;;;4.15;0.62;;;;;;;21.69;29.50;99702.35;1758259;80;21180;-42
2021/05/12 04:50:37;;;;;;;2.98;0.62;;;;;;;21.84;29.27;99698.47;1754659;80;22525;-43
2021/05/12 04:53:04;;;;;;;1.72;0.60;;;;;;;21.97;29.18;99698.83;1747428;80;21816;-41
2021/05/12 04:55:31;;;;;;;2.35;0.53;;;;;;;22.07;29.00;99694.44;1765733;80;21062;-41
2021/05/12 04:57:58;;;;;;;1.70;0.40;;;;;;;22.17;28.86;99698.58;1752725;80;21754;-41
2021/05/12 05:00:25;;;;;;;4.05;1.47;;;;;;;22.26;28.75;99700.54;1754961;80;21796;-42
2021/05/12 05:02:52;;;;;;;1.57;0.60;;;;;;;22.33;28.64;99699.59;1700900;83;21164;-43
2021/05/12 05:05:21;;;;;;;1.00;0.57;;;;;;;22.39;28.59;99704.44;1758012;80;21080;-45
2021/05/12 05:07:48;;;;;;;1.50;0.50;;;;;;;22.48;28.51;99707.72;1764999;80;21164;-46
2021/05/12 05:10:15;;;;;;;5.70;0.50;;;;;;;22.53;28.73;99702.84;1748091;80;21107;-46
2021/05/12 05:12:42;;;;;;;11.33;0.85;;;;;;;22.54;28.93;99705.86;1745451;80;22224;-45
2021/05/12 05:15:10;;;;;;;1.85;0.60;;;;;;;22.54;29.09;99706.36;1748669;80;21191;-44
2021/05/12 05:17:37;;;;;;;7.45;0.70;;;;;;;22.51;29.15;99715.52;1753124;80;21149;-45
2021/05/12 05:20:05;;;;;;;1.00;0.50;;;;;;;22.51;29.31;99706.14;1737406;80;21146;-47
2021/05/12 05:22:32;;;;;;;1.80;0.78;;;;;;;22.52;29.40;99699.78;1730799;80;21073;-46
2021/05/12 05:24:58;;;;;;;5.10;0.60;;;;;;;22.55;29.63;99710.26;1763736;80;21151;-43
2021/05/12 05:27:25;;;;;;;7.12;0.80;;;;;;;22.60;30.27;99713.91;1765773;80;21108;-45
2021/05/12 05:29:53;;;;;;;2.77;0.50;;;;;;;22.67;30.43;99711.09;1756725;80;21073;-44
2021/05/12 05:32:23;;;;;;;1.17;0.55;;;;;;;22.75;30.37;99707.78;1701960;80;21235;-43
2021/05/12 05:35:10;;;;;;;0.55;0.55;;;;;;;22.84;30.52;99705.67;1750983;80;21076;-44
2021/05/12 05:37:55;;;;;;;1.75;0.68;;;;;;;22.92;30.55;99701.02;1765850;80;21217;-43
2021/05/12 05:40:35;;;;;;;1.27;0.60;;;;;;;22.99;30.37;99704.39;1714983;80;21074;-46
2021/05/12 05:43:20;;;;;;;2.30;0.78;;;;;;;23.04;30.29;99695.12;1762299;80;21520;-43
2021/05/12 05:46:05;;;;;;;1.85;0.60;;;;;;;23.09;30.15;99691.59;1753015;80;21093;-43
2021/05/12 05:48:50;;;;;;;1.37;0.70;;;;;;;23.14;30.20;99695.58;1747371;80;21053;-42
2021/05/12 05:51:30;;;;;;;1.82;0.70;;;;;;;23.19;30.15;99695.19;1709746;80;21762;-43
2021/05/12 05:54:15;;;;;;;2.92;1.30;;;;;;;23.22;30.20;99688.23;1766892;80;20977;-44
2021/05/12 05:57:07;;;;;;;6.80;1.20;;;;;;;23.27;30.42;99690.03;1764940;80;21161;-44
2021/05/12 05:59:52;;;;;;;1.87;1.40;;;;;;;23.33;30.40;99692.20;1749020;80;21217;-46
2021/05/12 06:02:37;;;;;;;4.08;1.60;;;;;;;23.37;30.60;99692.79;1749490;80;21026;-51
2021/05/12 06:05:22;;;;;;;18.87;1.98;;;;;;;23.43;30.60;99690.06;1760367;80;21668;-50
2021/05/12 06:08:07;;;;;;;4.12;0.90;;;;;;;23.50;30.80;99685.86;1754297;80;21153;-47
2021/05/12 06:10:51;;;;;;;9.88;1.22;;;;;;;23.53;29.66;99690.47;1764170;80;22515;-47
2021/05/12 06:13:36;;;;;;;4.45;1.20;;;;;;;23.34;29.28;99693.89;1741353;80;21081;-47
2021/05/12 06:16:21;;;;;;;2.58;0.72;;;;;;;23.09;28.93;99700.48;1754504;80;21146;-49
2021/05/12 06:18:58;;;;;;;4.00;0.70;;;;;;;22.79;28.90;99697.16;1688978;83;21243;-49
2021/05/12 06:21:43;;;;;;;11.85;0.90;;;;;;;22.50;29.11;99696.87;1753140;80;28550;-52
2021/05/12 06:24:27;;;;;;;1.85;0.50;;;;;;;22.26;29.58;99696.02;1726393;82;26562;-52
2021/05/12 06:27:12;;;;;;;6.33;0.80;;;;;;;22.10;29.57;99691.52;1716548;83;21108;-45
2021/05/12 06:29:53;;;;;;;3.20;0.50;;;;;;;21.96;29.95;99683.25;1655340;83;21041;-50
2021/05/12 06:32:37;;;;;;;1.98;0.68;;;;;;;21.87;30.24;99688.86;1711501;83;21445;-52
2021/05/12 06:35:22;;;;;;;1.62;0.60;;;;;;;21.83;30.26;99690.05;1715663;83;21112;-49
2021/05/12 06:38:07;;;;;;;3.87;0.60;;;;;;;21.84;30.41;99685.08;1755771;80;21190;-48
2021/05/12 06:40:35;;;;;;;2.00;0.60;;;;;;;21.84;30.03;99689.09;1766569;80;21136;-52
2021/05/12 06:43:01;;;;;;;1.52;0.47;;;;;;;21.81;30.21;99692.01;1758375;79;21060;-51
2021/05/12 06:45:28;;;;;;;7.08;0.80;;;;;;;21.79;30.25;99697.98;1759965;80;21491;-46
2021/05/12 06:47:54;;;;;;;1.52;0.40;;;;;;;21.79;30.11;99687.27;1764111;80;21189;-50
2021/05/12 06:50:24;;;;;;;2.20;0.25;;;;;;;21.75;29.74;99687.13;1762005;80;21937;-46
2021/05/12 06:52:57;;;;;;;5.42;0.65;;;;;;;21.66;29.76;99697.23;1698388;84;21204;-52
2021/05/12 06:55:26;;;;;;;5.60;0.45;;;;;;;21.58;29.83;99691.13;1760517;80;21108;-49
2021/05/12 06:57:52;;;;;;;1.05;0.40;;;;;;;21.52;29.85;99696.48;1760293;80;22110;-53
2021/05/12 07:00:20;;;;;;;1.12;0.40;;;;;;;21.51;29.96;99689.41;1669400;82;21120;-49
2021/05/12 07:02:47;;;;;;;2.00;0.37;;;;;;;21.51;30.02;99684.05;1766934;80;21076;-49
2021/05/12 07:05:20;;;;;;;3.15;0.40;;;;;;;21.57;30.42;99677.85;1700894;82;21121;-47
2021/05/12 07:07:43;;;;;;;0.60;0.40;;;;;;;21.65;29.83;99691.50;1763154;80;21139;-54
2021/05/12 07:10:12;;;;;;;2.40;0.60;;;;;;;21.62;29.52;99690.39;1763320;80;21843;-51
2021/05/12 07:12:39;;;;;;;10.53;0.70;;;;;;;21.57;29.48;99692.11;1757285;80;21081;-50
2021/05/12 07:15:07;;;;;;;10.88;0.70;;;;;;;21.53;29.40;99687.95;1704325;82;21582;-51
2021/05/12 07:17:34;;;;;;;5.70;0.90;;;;;;;21.48;29.66;99690.98;1753521;80;21075;-50
2021/05/12 07:20:01;;;;;;;11.73;1.10;;;;;;;21.43;29.67;99682.42;1758127;80;21077;-51
2021/05/12 07:22:27;;;;;;;9.43;1.10;;;;;;;21.38;29.41;99683.27;1761549;80;21120;-51
2021/05/12 07:24:53;;;;;;;9.00;0.80;;;;;;;21.30;29.46;99683.87;1756745;80;21665;-51
2021/05/12 07:27:22;;;;;;;2.35;0.60;;;;;;;21.25;29.38;99675.80;1743143;80;21022;-52
2021/05/12 07:29:49;;;;;;;5.10;0.82;;;;;;;21.20;29.27;99677.98;1743589;81;21050;-51
2021/05/12 07:32:16;;;;;;;5.47;0.60;;;;;;;21.14;29.31;99684.67;1750678;80;21392;-51
2021/05/12 07:34:43;;;;;;;3.22;0.70;;;;;;;21.10;29.29;99681.37;1760130;80;21327;-52
2021/05/12 07:37:09;;;;;;;2.15;0.78;;;;;;;21.04;29.41;99675.14;1725306;80;21302;-52
2021/05/12 07:39:36;;;;;;;3.25;0.70;;;;;;;21.05;29.46;99672.84;1719213;81;21082;-51
2021/05/12 07:42:06;;;;;;;4.28;0.90;;;;;;;21.05;29.31;99672.84;1696328;84;21175;-51
2021/05/12 07:44:32;;;;;;;2.85;0.88;;;;;;;21.03;29.35;99669.44;1740020;80;22232;-51
2021/05/12 07:46:58;;;;;;;5.78;0.60;;;;;;;21.08;29.45;99683.32;1729800;80;21176;-51
2021/05/12 07:49:25;;;;;;;3.40;0.60;;;;;;;21.09;29.39;99676.98;1733944;80;21532;-51
2021/05/12 07:51:51;;;;;;;4.45;0.42;;;;;;;21.08;29.41;99677.97;1699633;83;21108;-51
2021/05/12 07:54:18;;;;;;;2.27;0.70;;;;;;;21.11;29.10;99682.22;1724893;80;21021;-51
2021/05/12 07:56:44;;;;;;;2.65;0.40;;;;;;;20.98;29.21;99676.96;1720628;82;21137;-53
2021/05/12 07:59:11;;;;;;;1.77;0.40;;;;;;;20.88;29.39;99683.95;1729019;80;21104;-51
2021/05/12 08:01:42;;;;;;;2.87;0.60;;;;;;;20.81;29.45;99690.73;1719235;80;21155;-52
2021/05/12 08:04:06;;;;;;;5.10;0.68;;;;;;;20.68;29.60;99686.30;1735880;80;21072;-52
2021/05/12 08:06:33;;;;;;;9.93;0.90;;;;;;;20.59;29.81;99680.25;1734887;80;21618;-51
2021/05/12 08:09:02;;;;;;;5.70;0.53;;;;;;;20.59;29.88;99677.58;1726848;80;21073;-51
2021/05/12 08:11:28;;;;;;;3.00;0.40;;;;;;;20.55;29.74;99678.78;1727115;80;21525;-51
2021/05/12 08:13:54;;;;;;;3.77;0.50;;;;;;;20.45;29.89;99681.77;1732590;80;21164;-52
2021/05/12 08:16:21;;;;;;;3.45;0.40;;;;;;;20.35;29.94;99684.25;1732406;80;21598;-53
2021/05/12 08:18:47;;;;;;;3.95;0.40;;;;;;;20.22;30.09;99671.78;1734753;80;21141;-52
2021/05/12 08:21:14;;;;;;;4.15;0.40;;;;;;;20.08;30.29;99669.73;1736047;82;21144;-52
2021/05/12 08:23:40;;;;;;;4.03;0.60;;;;;;;19.99;30.57;99662.75;1740164;81;21173;-51
2021/05/12 08:26:09;;;;;;;1.25;0.55;;;;;;;19.96;30.71;99662.96;1730778;80;21088;-50
2021/05/12 08:28:38;;;;;;;2.67;1.00;;;;;;;19.96;30.79;99664.30;1728439;80;21077;-51
2021/05/12 08:31:06;;;;;;;3.22;0.60;;;;;;;19.98;30.92;99663.70;1715073;81;22018;-53
2021/05/12 08:33:33;;;;;;;16.12;0.80;;;;;;;20.02;30.89;99667.88;1686565;83;21336;-51
2021/05/12 08:36:00;;;;;;;2.77;0.72;;;;;;;20.03;30.80;99662.88;1715797;80;23032;-52
2021/05/12 08:38:27;;;;;;;8.93;1.62;;;;;;;20.03;30.68;99660.22;1701598;82;21083;-52
2021/05/12 08:40:56;;;;;;;6.12;1.70;;;;;;;19.94;30.79;99663.56;1751617;80;21093;-51
2021/05/12 08:43:24;;;;;;;5.17;1.50;;;;;;;19.87;31.00;99656.95;1717786;82;21057;-51
2021/05/12 08:45:52;;;;;;;3.52;1.30;;;;;;;19.88;31.10;99650.63;1753696;80;21144;-51
2021/05/12 08:48:19;;;;;;;9.05;1.30;;;;;;;19.95;31.07;99642.55;1742140;81;22600;-51
2021/05/12 08:50:46;;;;;;;2.33;1.05;;;;;;;20.06;31.05;99655.64;1730433;80;21041;-52
2021/05/12 08:53:13;;;;;;;1.87;0.82;;;;;;;20.18;31.18;99642.73;1723818;80;21664;-51
2021/05/12 08:55:40;;;;;;;1.42;0.80;;;;;;;20.28;31.04;99646.92;1736924;80;21649;-52
2021/05/12 08:58:06;;;;;;;2.42;0.60;;;;;;;20.25;30.90;99635.12;1729997;79;21002;-52
2021/05/12 09:00:33;;;;;;;15.45;0.93;;;;;;;20.09;30.82;99643.37;1721415;81;21688;-51
2021/05/12 09:03:01;;;;;;;9.63;0.90;;;;;;;19.94;31.09;99639.52;1721851;81;21126;-52
2021/05/12 09:05:29;;;;;;;6.25;0.68;;;;;;;19.88;31.06;99641.29;1736375;80;21371;-52
2021/05/12 09:07:56;;;;;;;5.25;0.78;;;;;;;19.78;31.14;99637.57;1727466;81;21606;-51
2021/05/12 09:10:23;;;;;;;2.77;0.45;;;;;;;19.70;31.23;99642.07;1723816;80;21677;-52
2021/05/12 09:12:53;;;;;;;12.20;0.88;;;;;;;19.60;31.32;99645.89;1737262;80;21074;-52
2021/05/12 09:15:21;;;;;;;3.47;0.60;;;;;;;19.49;31.53;99639.11;1762747;79;21081;-51
2021/05/12 09:17:50;;;;;;;2.08;0.60;;;;;;;19.39;31.73;99636.71;1703571;81;21108;-52
2021/05/12 09:20:31;;;;;;;2.98;0.50;;;;;;;19.36;31.84;99640.43;1724681;80;21582;-51
2021/05/12 09:23:03;;;;;;;6.75;0.60;;;;;;;19.37;31.95;99638.15;1728531;81;21558;-52
2021/05/12 09:25:32;;;;;;;0.47;0.47;;;;;;;19.44;31.90;99637.24;1736265;79;21010;-51
2021/05/12 09:28:14;;;;;;;0.80;0.65;;;;;;;19.51;31.91;99629.66;1724514;80;21097;-52
2021/05/12 09:30:48;;;;;;;1.07;0.70;;;;;;;19.55;32.01;99636.02;1763728;79;21077;-51
2021/05/12 09:33:30;;;;;;;6.87;0.50;;;;;;;19.53;32.03;99629.91;1734270;80;21092;-52
2021/05/12 09:35:58;;;;;;;8.18;1.37;;;;;;;19.48;32.14;99622.72;1736785;80;22530;-50
2021/05/12 09:38:31;;;;;;;4.55;0.60;;;;;;;19.45;32.08;99620.25;1725634;81;21732;-50
2021/05/12 09:41:14;;;;;;;2.37;0.78;;;;;;;19.41;32.15;99614.77;1734709;80;21647;-53
2021/05/12 09:43:51;;;;;;;8.80;0.80;;;;;;;19.34;32.20;99605.50;1732006;79;21084;-52
2021/05/12 09:46:26;;;;;;;5.40;0.50;;;;;;;19.29;32.39;99603.98;1727318;80;21645;-50
2021/05/12 09:49:05;;;;;;;6.30;0.75;;;;;;;19.35;32.58;99607.19;1737018;79;21032;-45
2021/05/12 09:51:42;;;;;;;1.98;0.88;;;;;;;19.43;32.78;99606.17;1721586;81;21850;-50
2021/05/12 09:54:11;;;;;;;7.53;0.90;;;;;;;19.50;32.84;99607.44;1744078;81;21029;-44
2021/05/12 09:56:44;;;;;;;11.88;1.12;;;;;;;19.57;32.93;99606.07;1734548;79;21471;-49
2021/05/12 09:59:18;;;;;;;6.35;0.90;;;;;;;19.58;33.03;99606.42;1735451;81;21120;-50
2021/05/12 10:01:48;;;;;;;2.60;0.95;;;;;;;19.60;32.76;99597.85;1726181;79;21105;-51
2021/05/12 10:04:29;;;;;;;6.83;1.00;;;;;;;19.73;32.42;99600.97;1740488;81;22243;-51
2021/05/12 10:06:55;;;;;;;1.85;0.70;;;;;;;19.91;31.95;99598.84;1725766;80;21732;-55
2021/05/12 10:09:25;;;;;;;4.22;0.70;;;;;;;20.07;31.74;99591.89;1737092;81;21077;-52
2021/05/12 10:12:05;;;;;;;3.15;0.82;;;;;;;20.23;31.62;99587.14;1729482;81;21057;-52
2021/05/12 10:14:35;;;;;;;1.15;0.80;;;;;;;20.39;31.56;99586.38;1731001;81;21010;-55
2021/05/12 10:17:05;;;;;;;6.53;0.80;;;;;;;20.58;31.49;99591.69;1732953;79;21808;-51
2021/05/12 10:19:32;;;;;;;3.10;0.85;;;;;;;20.73;31.49;99589.71;1719390;81;21095;-47
2021/05/12 10:22:01;;;;;;;1.30;0.72;;;;;;;20.89;31.48;99594.73;1739303;80;21056;-50
2021/05/12 10:24:30;;;;;;;1.07;0.70;;;;;;;21.03;31.48;99579.83;1744290;79;21144;-52
2021/05/12 10:27:00;;;;;;;2.90;0.80;;;;;;;21.18;31.51;99584.45;1714697;80;21089;-49
2021/05/12 10:29:27;;;;;;;1.20;0.62;;;;;;;21.32;31.48;99584.23;1739487;80;21082;-54
2021/05/12 10:31:55;;;;;;;1.42;0.93;;;;;;;21.46;31.41;99586.31;1729848;80;22002;-50
2021/05/12 10:34:37;;;;;;;2.90;0.85;;;;;;;21.56;31.36;99581.97;1679047;82;21077;-50
2021/05/12 10:37:22;;;;;;;2.47;0.70;;;;;;;21.67;31.26;99583.31;1739566;80;21108;-50
2021/05/12 10:39:59;;;;;;;5.05;0.90;;;;;;;21.79;31.11;99580.63;1708465;80;21077;-52
2021/05/12 10:43:06;;;;;;;;;;;;;;;21.91;30.98;99588.17;1732553;81;21077;-48
2021/05/12 10:45:37;;;;;;;1.15;0.68;;;;;;;22.03;30.80;99583.14;1730591;80;20238;-48
2021/05/12 10:48:04;;;;;;;2.12;0.62;;;;;;;22.13;30.73;99573.38;1703418;82;21613;-52
2021/05/12 10:50:46;;;;;;;1.37;0.80;;;;;;;22.22;30.65;99585.16;1711478;80;21104;-49
2021/05/12 10:53:29;;;;;;;1.30;0.72;;;;;;;22.31;30.64;99579.55;1687964;82;21087;-51
2021/05/12 10:56:00;;;;;;;1.22;0.53;;;;;;;22.43;30.70;99575.38;1709810;80;21128;-49
2021/05/12 10:58:35;;;;;;;7.25;0.80;;;;;;;22.52;30.77;99573.76;1702024;82;21049;-49
2021/05/12 11:01:10;;;;;;;3.15;0.78;;;;;;;22.62;30.73;99564.45;1709788;82;21124;-48
2021/05/12 11:03:57;;;;;;;1.12;0.70;;;;;;;22.71;30.81;99565.50;1740921;80;21112;-51
2021/05/12 11:06:45;;;;;;;4.30;0.78;;;;;;;22.82;30.81;99564.11;1721526;82;20993;-51
2021/05/12 11:09:20;;;;;;;6.30;0.85;;;;;;;22.91;30.84;99555.27;1718382;82;22331;-50
2021/05/12 11:11:54;;;;;;;6.35;0.70;;;;;;;23.00;30.87;99550.97;1702333;82;21615;-52
2021/05/12 11:14:30;;;;;;;6.58;0.60;;;;;;;23.07;30.91;99545.95;1713793;82;21097;-49
2021/05/12 11:17:12;;;;;;;5.12;0.90;;;;;;;23.13;30.91;99544.06;1704155;80;21645;-51
2021/05/12 11:19:46;;;;;;;3.58;0.75;;;;;;;23.20;30.90;99539.89;1703243;82;21150;-48
2021/05/12 11:33:29;;;;;;;4.05;0.98;;;;;;;23.58;30.59;99528.09;1732207;80;21093;-50
2021/05/12 11:36:01;;;;;;;1.95;0.57;;;;;;;23.66;30.51;99523.73;1708293;82;21096;-52
2021/05/12 11:38:27;;;;;;;0.55;0.45;;;;;;;23.72;30.57;99519.16;1717354;82;21171;-51
2021/05/12 11:41:08;;;;;;;2.52;0.62;;;;;;;23.80;30.56;99518.95;1708871;82;21120;-48
2021/05/12 11:43:41;;;;;;;4.08;0.72;;;;;;;23.84;30.50;99513.69;1711699;82;21141;-49
2021/05/12 11:46:24;;;;;;;2.72;0.57;;;;;;;23.88;30.56;99519.16;1705320;81;21092;-49
2021/05/12 11:49:02;;;;;;;6.17;0.90;;;;;;;23.92;30.58;99525.94;1688982;83;21121;-52
2021/05/12 11:51:39;;;;;;;1.52;0.50;;;;;;;23.95;30.63;99516.26;1716392;81;21490;-48
2021/05/12 11:54:22;;;;;;;5.15;0.70;;;;;;;24.00;30.83;99507.28;1706883;81;21051;-51
2021/05/12 11:56:57;;;;;;;6.70;3.45;;;;;;;23.99;28.94;99502.91;1715678;82;21069;-50
2021/05/12 11:59:37;;;;;;;5.22;1.15;;;;;;;23.83;28.17;99499.91;1707530;80;21055;-53